createdAt,value
2019-05-23T00:02:25.939Z,1.50
2019-05-23T00:05:00.725Z,1.93
2019-05-23T00:07:31.608Z,1.47
2019-05-23T00:10:02.873Z,3.20
2019-05-23T00:12:35.531Z,2.10
2019-05-23T00:15:12.701Z,1.70
2019-05-23T00:17:43.565Z,1.53
2019-05-23T00:20:13.852Z,2.80
2019-05-23T00:22:44.603Z,1.63
2019-05-23T00:25:15.912Z,1.00
2019-05-23T00:27:46.014Z,1.20
2019-05-23T00:30:23.558Z,1.30
2019-05-23T00:32:56.384Z,1.30
2019-05-23T00:35:26.971Z,1.33
2019-05-23T00:37:57.094Z,2.87
2019-05-23T00:40:28.053Z,3.73
2019-05-23T00:42:58.561Z,1.10
2019-05-23T00:45:29.814Z,1.63
2019-05-23T00:48:00.382Z,1.30
2019-05-23T00:50:32.560Z,1.50
2019-05-23T00:53:02.847Z,1.17
2019-05-23T00:55:33.197Z,1.70
2019-05-23T00:58:03.270Z,1.20
2019-05-23T01:00:33.008Z,1.37
2019-05-23T01:03:03.056Z,1.27
2019-05-23T01:05:32.845Z,1.30
2019-05-23T01:08:03.960Z,1.13
2019-05-23T01:10:34.184Z,1.30
2019-05-23T01:13:06.081Z,1.60
2019-05-23T01:15:38.740Z,1.30
2019-05-23T01:18:10.298Z,1.37
2019-05-23T01:20:48.668Z,2.80
2019-05-23T01:23:20.057Z,2.83
2019-05-23T01:25:50.287Z,1.37
2019-05-23T01:28:22.212Z,7.40
2019-05-23T01:31:05.810Z,3.67
2019-05-23T01:33:37.602Z,1.20
2019-05-23T01:36:07.774Z,2.30
2019-05-23T01:38:38.805Z,1.23
2019-05-23T01:41:10.134Z,2.30
2019-05-23T01:43:40.472Z,2.27
2019-05-23T01:46:11.626Z,2.10
2019-05-23T01:48:42.710Z,2.13
2019-05-23T01:51:14.083Z,4.07
2019-05-23T01:53:44.204Z,3.27
2019-05-23T01:56:14.347Z,1.20
2019-05-23T01:58:44.489Z,1.20
2019-05-23T02:01:15.711Z,2.10
2019-05-23T02:03:46.297Z,1.33
2019-05-23T02:06:15.976Z,2.10
2019-05-23T02:08:45.668Z,1.77
2019-05-23T02:11:17.944Z,2.83
2019-05-23T02:13:48.118Z,1.10
2019-05-23T02:16:18.215Z,1.20
2019-05-23T02:18:49.885Z,1.77
2019-05-23T02:21:21.543Z,1.47
2019-05-23T02:23:51.463Z,1.00
2019-05-23T02:26:22.300Z,1.20
2019-05-23T02:28:53.308Z,1.37
2019-05-23T02:31:23.490Z,0.90
2019-05-23T02:33:55.683Z,1.20
2019-05-23T02:36:26.184Z,2.17
2019-05-23T02:39:16.222Z,2.23
2019-05-23T02:42:07.332Z,2.40
2019-05-23T02:44:37.309Z,1.17
2019-05-23T02:47:25.148Z,1.17
2019-05-23T02:49:56.559Z,1.20
2019-05-23T02:52:36.888Z,1.20
2019-05-23T02:55:13.063Z,5.53
2019-05-23T02:57:44.228Z,1.53
2019-05-23T03:00:18.595Z,1.20
2019-05-23T03:02:51.414Z,1.30
2019-05-23T03:05:23.134Z,3.50
2019-05-23T03:07:53.389Z,1.67
2019-05-23T03:10:24.257Z,1.53
2019-05-23T03:12:55.753Z,1.23
2019-05-23T03:15:27.494Z,2.70
2019-05-23T03:18:03.234Z,1.20
2019-05-23T03:20:35.756Z,1.10
2019-05-23T03:23:13.085Z,1.10
2019-05-23T03:25:57.349Z,1.03
2019-05-23T03:28:28.891Z,1.77
2019-05-23T03:31:29.477Z,2.37
2019-05-23T03:33:49.498Z,6.10
2019-05-23T03:36:20.583Z,2.03
2019-05-23T03:39:11.829Z,4.93
2019-05-23T03:41:41.483Z,6.40
2019-05-23T03:44:12.173Z,1.00
2019-05-23T03:46:49.259Z,1.43
2019-05-23T03:49:19.784Z,2.80
2019-05-23T03:51:50.860Z,2.20
2019-05-23T03:54:21.131Z,3.63
2019-05-23T03:56:51.272Z,1.87
2019-05-23T03:59:40.604Z,1.87
2019-05-23T04:02:12.187Z,1.60
2019-05-23T04:04:41.873Z,2.30
2019-05-23T04:07:13.274Z,1.37
2019-05-23T04:09:43.701Z,2.20
2019-05-23T04:12:14.052Z,1.60
2019-05-23T04:14:45.913Z,1.77
2019-05-23T04:17:15.899Z,2.57
2019-05-23T04:19:48.684Z,2.13
2019-05-23T04:22:17.748Z,1.17
2019-05-23T04:25:08.296Z,1.53
2019-05-23T04:27:38.618Z,1.63
2019-05-23T04:30:10.654Z,1.20
2019-05-23T04:32:41.095Z,1.90
2019-05-23T04:35:11.078Z,2.07
2019-05-23T04:37:41.325Z,2.20
2019-05-23T04:40:12.674Z,2.63
2019-05-23T04:42:42.434Z,1.47
2019-05-23T04:45:12.438Z,1.30
2019-05-23T04:47:42.182Z,1.30
2019-05-23T04:50:13.868Z,0.90
2019-05-23T04:52:43.867Z,1.30
2019-05-23T04:55:15.421Z,1.83
2019-05-23T04:57:45.531Z,1.40
2019-05-23T05:00:18.407Z,1.40
2019-05-23T05:02:48.629Z,1.73
2019-05-23T05:05:19.186Z,3.57
2019-05-23T05:07:48.900Z,2.23
2019-05-23T05:10:21.895Z,1.40
2019-05-23T05:12:52.211Z,1.17
2019-05-23T05:15:23.284Z,1.63
2019-05-23T05:17:53.214Z,1.43
2019-05-23T05:20:23.914Z,1.60
2019-05-23T05:23:03.597Z,1.33
2019-05-23T05:25:33.738Z,2.53
2019-05-23T05:28:10.177Z,1.60
2019-05-23T05:30:46.346Z,1.20
2019-05-23T05:33:29.476Z,4.20
2019-05-23T05:36:03.695Z,2.97
2019-05-23T05:38:33.703Z,2.93
2019-05-23T05:41:03.718Z,1.80
2019-05-23T05:43:34.821Z,2.33
2019-05-23T05:46:05.414Z,1.90
2019-05-23T05:48:35.176Z,2.50
2019-05-23T05:51:05.210Z,2.40
2019-05-23T05:53:35.521Z,1.10
2019-05-23T05:56:05.847Z,1.63
2019-05-23T05:58:35.806Z,3.03
2019-05-23T06:01:07.559Z,1.83
2019-05-23T06:03:37.358Z,2.10
2019-05-23T06:06:08.934Z,3.53
2019-05-23T06:08:40.834Z,4.03
2019-05-23T06:11:11.547Z,6.57
2019-05-23T06:13:41.253Z,3.07
2019-05-23T06:16:11.031Z,1.67
2019-05-23T06:18:40.935Z,1.40
2019-05-23T06:21:12.277Z,6.13
2019-05-23T06:23:42.427Z,2.90
2019-05-23T06:26:12.275Z,2.13
2019-05-23T06:28:43.908Z,3.50
2019-05-23T06:31:15.498Z,1.50
2019-05-23T06:33:46.285Z,1.83
2019-05-23T06:36:17.602Z,1.63
2019-05-23T06:38:48.093Z,1.10
2019-05-23T06:41:19.776Z,1.83
2019-05-23T06:44:10.066Z,3.87
2019-05-23T06:46:40.048Z,3.43
2019-05-23T06:49:10.151Z,4.90
2019-05-23T06:51:40.097Z,1.60
2019-05-23T06:54:10.065Z,2.03
2019-05-23T06:56:40.024Z,3.43
2019-05-23T06:59:09.728Z,6.03
2019-05-23T07:01:39.408Z,3.50
2019-05-23T07:04:09.359Z,2.90
2019-05-23T07:06:39.553Z,2.70
2019-05-23T07:09:14.975Z,2.90
2019-05-23T07:11:44.809Z,1.40
2019-05-23T07:14:14.851Z,5.03
2019-05-23T07:16:44.569Z,2.53
2019-05-23T07:19:14.944Z,3.80
2019-05-23T07:21:44.713Z,1.93
2019-05-23T07:24:14.703Z,1.60
2019-05-23T07:27:05.252Z,2.10
2019-05-23T07:29:35.262Z,1.47
2019-05-23T07:32:05.767Z,1.40
2019-05-23T07:34:35.623Z,1.63
2019-05-23T07:37:05.754Z,1.80
2019-05-23T07:39:35.419Z,1.93
2019-05-23T07:42:07.224Z,3.70
2019-05-23T07:44:47.885Z,1.20
2019-05-23T07:47:12.071Z,2.60
2019-05-23T07:49:41.943Z,1.10
2019-05-23T07:52:11.719Z,1.30
2019-05-23T07:54:46.229Z,1.17
2019-05-23T07:57:16.767Z,1.83
2019-05-23T07:59:47.056Z,1.20
2019-05-23T08:02:25.429Z,3.43
2019-05-23T08:04:53.782Z,2.20
2019-05-23T08:07:24.903Z,2.20
2019-05-23T08:09:54.919Z,2.00
2019-05-23T08:12:24.891Z,1.47
2019-05-23T08:14:54.952Z,1.23
2019-05-23T08:17:24.648Z,1.57
2019-05-23T08:19:54.280Z,4.20
2019-05-23T08:22:25.011Z,1.97
2019-05-23T08:24:55.159Z,1.23
2019-05-23T08:27:25.759Z,3.63
2019-05-23T08:29:55.975Z,2.40
2019-05-23T08:32:25.976Z,1.73
2019-05-23T08:34:55.589Z,2.60
2019-05-23T08:37:25.403Z,1.30
2019-05-23T08:39:55.613Z,2.17
2019-05-23T08:42:26.077Z,1.10
2019-05-23T08:44:55.952Z,3.00
2019-05-23T08:47:26.197Z,1.10
2019-05-23T08:49:55.879Z,1.80
2019-05-23T08:52:25.767Z,1.00
2019-05-23T08:54:58.463Z,1.83
2019-05-23T08:57:28.951Z,2.40
2019-05-23T08:59:58.597Z,1.33
2019-05-23T09:02:29.503Z,1.20
2019-05-23T09:05:05.432Z,2.70
2019-05-23T09:07:30.715Z,2.60
2019-05-23T09:10:00.857Z,1.23
2019-05-23T09:12:30.557Z,0.90
2019-05-23T09:15:00.964Z,1.20
2019-05-23T09:17:30.867Z,3.70
2019-05-23T09:20:00.645Z,1.10
2019-05-23T09:22:30.397Z,0.97
2019-05-23T09:25:00.298Z,0.80
2019-05-23T09:27:30.039Z,1.43
2019-05-23T09:30:00.625Z,2.97
2019-05-23T09:32:30.658Z,1.57
2019-05-23T09:35:00.722Z,1.83
2019-05-23T09:37:30.647Z,1.60
2019-05-23T09:40:00.429Z,1.00
2019-05-23T09:42:30.156Z,1.90
2019-05-23T09:44:59.861Z,1.13
2019-05-23T09:47:29.635Z,1.10
2019-05-23T09:49:59.464Z,1.00
2019-05-23T09:52:30.712Z,1.00
2019-05-23T09:55:00.438Z,1.40
2019-05-23T09:57:30.211Z,1.83
2019-05-23T10:00:00.055Z,1.43
2019-05-23T10:02:30.068Z,1.20
2019-05-23T10:04:59.674Z,1.87
2019-05-23T10:07:29.674Z,0.90
2019-05-23T10:09:59.392Z,0.97
2019-05-23T10:12:29.287Z,0.80
2019-05-23T10:14:59.144Z,2.60
2019-05-23T10:17:28.846Z,1.00
2019-05-23T10:19:58.536Z,1.40
2019-05-23T10:22:28.195Z,1.10
2019-05-23T10:24:57.986Z,1.00
2019-05-23T10:27:27.744Z,1.10
2019-05-23T10:29:58.261Z,3.43
2019-05-23T10:32:28.358Z,1.23
2019-05-23T10:34:58.174Z,3.70
2019-05-23T10:37:27.914Z,0.80
2019-05-23T10:39:57.664Z,1.07
2019-05-23T10:42:28.082Z,3.60
2019-05-23T10:44:58.225Z,1.00
2019-05-23T10:47:28.282Z,1.13
2019-05-23T10:49:58.467Z,1.07
2019-05-23T10:52:28.599Z,0.90
2019-05-23T10:54:58.644Z,0.90
2019-05-23T10:57:28.678Z,1.07
2019-05-23T10:59:58.417Z,1.23
2019-05-23T11:02:29.156Z,1.00
2019-05-23T11:05:11.617Z,0.90
2019-05-23T11:07:31.052Z,2.70
2019-05-23T11:10:00.879Z,2.07
2019-05-23T11:12:31.477Z,1.00
2019-05-23T11:15:01.266Z,1.10
2019-05-23T11:17:31.334Z,1.17
2019-05-23T11:20:00.950Z,1.10
2019-05-23T11:22:31.071Z,1.23
2019-05-23T11:25:01.989Z,1.00
2019-05-23T11:27:32.014Z,1.50
2019-05-23T11:30:01.782Z,1.37
2019-05-23T11:32:31.480Z,0.97
2019-05-23T11:35:01.263Z,0.90
2019-05-23T11:37:31.655Z,1.30
2019-05-23T11:40:01.794Z,1.23
2019-05-23T11:42:31.689Z,1.30
2019-05-23T11:45:01.618Z,1.67
2019-05-23T11:47:32.279Z,1.00
2019-05-23T11:50:02.664Z,0.97
2019-05-23T11:52:32.812Z,1.00
2019-05-23T11:55:03.667Z,0.93
2019-05-23T11:57:37.289Z,0.90
2019-05-23T12:00:10.120Z,3.53
2019-05-23T12:02:44.353Z,1.10
2019-05-23T12:05:15.862Z,3.13
2019-05-23T12:07:45.911Z,1.37
2019-05-23T12:10:16.536Z,1.00
2019-05-23T12:12:46.394Z,1.93
2019-05-23T12:15:24.155Z,1.00
2019-05-23T12:17:54.116Z,1.13
2019-05-23T12:20:24.377Z,1.23
2019-05-23T12:22:54.110Z,1.03
2019-05-23T12:25:24.214Z,1.10
2019-05-23T12:27:53.920Z,1.10
2019-05-23T12:30:24.173Z,1.30
2019-05-23T12:32:53.954Z,1.40
2019-05-23T12:35:24.117Z,1.73
2019-05-23T12:37:53.876Z,1.23
2019-05-23T12:40:23.734Z,1.33
2019-05-23T12:42:54.107Z,1.53
2019-05-23T12:45:25.028Z,1.20
2019-05-23T12:48:15.671Z,3.67
2019-05-23T12:50:47.128Z,1.50
2019-05-23T12:53:17.998Z,1.57
2019-05-23T12:55:47.850Z,1.50
2019-05-23T12:58:19.727Z,1.40
2019-05-23T13:00:51.637Z,1.40
2019-05-23T13:03:22.226Z,1.50
2019-05-23T13:05:52.258Z,1.60
2019-05-23T13:08:22.997Z,1.40
2019-05-23T13:10:52.851Z,1.50
2019-05-23T13:13:22.889Z,1.50
2019-05-23T13:15:52.815Z,2.73
2019-05-23T13:18:22.777Z,1.47
2019-05-23T13:20:53.283Z,1.40
2019-05-23T13:23:23.240Z,1.40
2019-05-23T13:25:53.227Z,1.30
2019-05-23T13:28:23.171Z,1.63
2019-05-23T13:30:53.265Z,1.60
2019-05-23T13:33:25.262Z,2.20
2019-05-23T13:35:55.464Z,1.13
2019-05-23T13:38:25.413Z,1.90
2019-05-23T13:40:55.165Z,1.97
2019-05-23T13:43:25.729Z,1.30
2019-05-23T13:45:55.687Z,1.67
2019-05-23T13:48:28.188Z,1.20
2019-05-23T13:50:58.473Z,1.17
2019-05-23T13:53:28.520Z,1.13
2019-05-23T13:55:58.604Z,0.90
2019-05-23T13:58:28.942Z,1.83
2019-05-23T14:00:59.764Z,1.27
2019-05-23T14:03:29.880Z,1.27
2019-05-23T14:05:59.794Z,1.00
2019-05-23T14:08:29.758Z,1.40
2019-05-23T14:10:59.509Z,3.80
2019-05-23T14:13:30.258Z,2.50
2019-05-23T14:16:00.497Z,1.37
2019-05-23T14:18:32.014Z,1.70
2019-05-23T14:21:01.689Z,1.10
2019-05-23T14:23:32.789Z,0.97
2019-05-23T14:26:02.739Z,1.50
2019-05-23T14:28:32.835Z,2.17
2019-05-23T14:31:09.990Z,2.10
2019-05-23T14:33:41.330Z,4.30
2019-05-23T14:36:15.562Z,1.67
2019-05-23T14:38:45.582Z,1.13
2019-05-23T14:41:15.328Z,1.20
2019-05-23T14:43:46.864Z,1.53
2019-05-23T14:46:21.249Z,1.30
2019-05-23T14:48:58.720Z,1.57
2019-05-23T14:51:30.348Z,1.20
2019-05-23T14:54:08.399Z,1.40
2019-05-23T14:56:38.929Z,2.83
2019-05-23T14:59:08.990Z,1.20
2019-05-23T15:01:38.949Z,2.67
2019-05-23T15:04:08.981Z,1.53
2019-05-23T15:06:39.379Z,1.10
2019-05-23T15:09:12.249Z,1.17
2019-05-23T15:11:42.140Z,1.10
2019-05-23T15:14:11.801Z,1.27
2019-05-23T15:16:41.871Z,1.77
2019-05-23T15:19:11.692Z,1.23
2019-05-23T15:21:41.499Z,1.20
2019-05-23T15:24:11.372Z,1.30
2019-05-23T15:26:41.414Z,1.27
2019-05-23T15:29:11.188Z,1.80
2019-05-23T15:31:40.886Z,1.90
2019-05-23T15:34:10.680Z,1.63
2019-05-23T15:36:40.374Z,1.00
2019-05-23T15:39:11.042Z,1.60
2019-05-23T15:41:40.791Z,2.63
2019-05-23T15:44:24.143Z,1.20
2019-05-23T15:46:42.239Z,1.30
2019-05-23T15:49:14.422Z,1.93
2019-05-23T15:51:45.749Z,1.10
2019-05-23T15:54:17.167Z,1.23
2019-05-23T15:56:48.721Z,2.50
2019-05-23T15:59:20.087Z,1.63
2019-05-23T16:02:00.354Z,1.20
2019-05-23T16:04:30.729Z,1.20
2019-05-23T16:07:00.676Z,1.20
2019-05-23T16:09:31.150Z,2.93
2019-05-23T16:12:00.975Z,1.30
2019-05-23T16:14:31.381Z,1.77
2019-05-23T16:17:01.131Z,1.40
2019-05-23T16:19:31.032Z,1.30
2019-05-23T16:22:00.797Z,1.33
2019-05-23T16:24:30.780Z,2.27
2019-05-23T16:27:01.662Z,1.93
2019-05-23T16:29:32.733Z,1.60
2019-05-23T16:32:02.426Z,1.97
2019-05-23T16:34:32.222Z,1.30
2019-05-23T16:37:02.333Z,1.33
2019-05-23T16:39:46.760Z,1.77
2019-05-23T16:42:24.057Z,1.43
2019-05-23T16:44:54.347Z,1.20
2019-05-23T16:47:24.585Z,1.40
2019-05-23T16:49:54.358Z,2.50
2019-05-23T16:52:24.058Z,1.70
2019-05-23T16:54:58.248Z,1.30
2019-05-23T16:57:35.614Z,3.00
2019-05-23T17:00:12.571Z,1.30
2019-05-23T17:02:44.053Z,1.77
2019-05-23T17:05:24.857Z,1.27
2019-05-23T17:08:11.213Z,2.07
2019-05-23T17:10:45.491Z,4.37
2019-05-23T17:13:16.896Z,1.30
2019-05-23T17:16:03.426Z,1.20
2019-05-23T17:18:37.492Z,1.63
2019-05-23T17:21:09.142Z,3.33
2019-05-23T17:23:46.251Z,1.40
2019-05-23T17:26:27.602Z,1.33
2019-05-23T17:28:59.094Z,1.43
2019-05-23T17:31:30.552Z,1.17
2019-05-23T17:34:00.221Z,2.70
2019-05-23T17:36:33.275Z,2.00
2019-05-23T17:39:04.860Z,1.67
2019-05-23T17:41:34.560Z,3.33
2019-05-23T17:44:04.720Z,4.10
2019-05-23T17:46:34.488Z,1.93
2019-05-23T17:49:04.205Z,1.43
2019-05-23T17:51:33.903Z,1.40
2019-05-23T17:54:03.911Z,1.50
2019-05-23T17:56:33.867Z,2.50
2019-05-23T17:59:03.642Z,3.40
2019-05-23T18:01:33.406Z,1.50
2019-05-23T18:04:03.674Z,1.47
2019-05-23T18:06:33.990Z,1.57
2019-05-23T18:09:06.863Z,2.00
2019-05-23T18:11:37.380Z,1.70
2019-05-23T18:14:09.116Z,2.90
2019-05-23T18:16:39.291Z,1.90
2019-05-23T18:19:41.471Z,4.30
2019-05-23T18:22:19.537Z,1.90
2019-05-23T18:24:49.274Z,3.50
2019-05-23T18:27:19.089Z,1.80
2019-05-23T18:29:49.516Z,1.93
2019-05-23T18:32:21.052Z,2.67
2019-05-23T18:34:51.211Z,7.73
2019-05-23T18:37:21.478Z,413.77
2019-05-23T18:39:51.369Z,610.40
2019-05-23T18:42:25.745Z,612.03
2019-05-23T18:44:56.686Z,647.20
2019-05-23T18:47:43.386Z,637.70
2019-05-23T18:50:14.952Z,702.13
2019-05-23T18:52:44.596Z,677.83
2019-05-23T18:55:16.533Z,614.83
2019-05-23T18:57:47.269Z,593.43
2019-05-23T19:00:17.306Z,544.87
2019-05-23T19:02:47.256Z,531.17
2019-05-23T19:05:17.576Z,503.53
2019-05-23T19:07:47.919Z,482.27
2019-05-23T19:10:18.435Z,451.40
2019-05-23T19:12:48.741Z,445.70
2019-05-23T19:15:19.245Z,429.97
2019-05-23T19:17:49.708Z,372.03
2019-05-23T19:20:19.756Z,359.17
2019-05-23T19:22:49.738Z,341.43
2019-05-23T19:25:21.091Z,294.30
2019-05-23T19:27:51.416Z,273.93
2019-05-23T19:30:22.260Z,237.87
2019-05-23T19:32:52.513Z,223.27
2019-05-23T19:35:23.610Z,207.03
2019-05-23T19:37:53.644Z,194.40
2019-05-23T19:40:23.573Z,168.07
2019-05-23T19:42:56.835Z,162.43
2019-05-23T19:45:27.380Z,155.50
2019-05-23T19:47:57.404Z,150.80
2019-05-23T19:50:28.486Z,150.17
2019-05-23T19:52:58.466Z,131.83
2019-05-23T19:55:29.300Z,127.70
2019-05-23T19:57:58.999Z,115.20
2019-05-23T20:00:30.277Z,101.50
2019-05-23T20:03:03.838Z,96.93
2019-05-23T20:05:45.821Z,85.27
2019-05-23T20:08:16.220Z,91.50
2019-05-23T20:10:57.539Z,77.10
2019-05-23T20:13:50.551Z,73.83
2019-05-23T20:16:10.846Z,73.30
2019-05-23T20:19:35.963Z,62.77
2019-05-23T20:21:32.595Z,60.73
2019-05-23T20:24:55.287Z,58.23
2019-05-23T20:26:40.698Z,59.70
2019-05-23T20:29:10.610Z,48.03
2019-05-23T20:31:40.477Z,46.70
2019-05-23T20:34:10.251Z,41.33
2019-05-23T20:36:39.939Z,34.37
2019-05-23T20:39:09.683Z,37.47
2019-05-23T20:41:40.441Z,28.90
2019-05-23T20:44:10.182Z,31.90
2019-05-23T20:46:40.098Z,27.97
2019-05-23T20:49:09.930Z,24.23
2019-05-23T20:51:39.754Z,23.63
2019-05-23T20:54:09.597Z,22.50
2019-05-23T20:56:42.399Z,18.50
2019-05-23T20:59:14.180Z,19.20
2019-05-23T21:01:43.747Z,17.10
2019-05-23T21:04:13.539Z,16.00
2019-05-23T21:06:43.638Z,14.57
2019-05-23T21:09:15.738Z,16.10
2019-05-23T21:11:44.613Z,11.93
2019-05-23T21:14:14.499Z,13.50
2019-05-23T21:16:44.257Z,10.93
2019-05-23T21:19:14.009Z,11.43
2019-05-23T21:21:43.815Z,12.30
2019-05-23T21:24:15.728Z,12.53
2019-05-23T21:26:46.931Z,10.33
2019-05-23T21:29:16.701Z,10.23
2019-05-23T21:31:46.622Z,8.77
2019-05-23T21:34:16.732Z,11.07
2019-05-23T21:36:46.394Z,9.60
2019-05-23T21:39:17.957Z,8.03
2019-05-23T21:41:47.677Z,10.07
2019-05-23T21:44:17.618Z,10.13
2019-05-23T21:46:47.734Z,7.80
2019-05-23T21:49:17.505Z,8.30
2019-05-23T21:51:47.673Z,8.13
2019-05-23T21:54:19.076Z,5.03
2019-05-23T21:56:49.034Z,5.67
2019-05-23T21:59:19.023Z,7.63
2019-05-23T22:01:59.730Z,6.67
2019-05-23T22:04:31.037Z,6.37
2019-05-23T22:07:04.760Z,6.13
2019-05-23T22:09:34.539Z,6.30
2019-05-23T22:12:04.630Z,5.20
2019-05-23T22:14:35.669Z,4.50
2019-05-23T22:17:05.413Z,7.47
2019-05-23T22:19:39.415Z,3.97
2019-05-23T22:22:09.202Z,4.30
2019-05-23T22:24:39.151Z,4.50
2019-05-23T22:27:10.108Z,3.60
2019-05-23T22:29:39.830Z,4.90
2019-05-23T22:32:11.485Z,4.40
2019-05-23T22:34:45.629Z,5.43
2019-05-23T22:37:17.332Z,4.87
2019-05-23T22:39:47.303Z,3.27
2019-05-23T22:42:18.637Z,6.27
2019-05-23T22:44:48.306Z,4.87
2019-05-23T22:47:18.666Z,4.40
2019-05-23T22:49:48.359Z,4.60
2019-05-23T22:52:18.062Z,3.60
2019-05-23T22:54:47.789Z,3.50
2019-05-23T22:57:17.588Z,2.93
2019-05-23T22:59:47.208Z,6.47
2019-05-23T23:02:18.307Z,4.40
2019-05-23T23:04:47.978Z,2.70
2019-05-23T23:07:18.455Z,3.10
2019-05-23T23:09:48.148Z,3.07
2019-05-23T23:12:17.888Z,3.87
2019-05-23T23:14:48.019Z,3.07
2019-05-23T23:17:19.369Z,2.50
2019-05-23T23:19:49.128Z,3.83
2019-05-23T23:22:19.203Z,2.50
2019-05-23T23:24:48.956Z,2.87
2019-05-23T23:27:18.928Z,3.40
2019-05-23T23:29:48.927Z,3.13
2019-05-23T23:32:18.779Z,3.33
2019-05-23T23:34:48.383Z,2.67
2019-05-23T23:37:18.010Z,2.70
2019-05-23T23:39:48.053Z,2.90
2019-05-23T23:42:17.905Z,2.20
2019-05-23T23:44:46.879Z,2.50
2019-05-23T23:47:34.588Z,2.40
2019-05-23T23:50:24.519Z,2.40
2019-05-23T23:53:12.231Z,2.80
2019-05-23T23:56:00.607Z,2.33
2019-05-23T23:58:30.094Z,2.77
